sensor_id;sensor_type;location;lat;lon;timestamp;temperature;humidity
3602;DHT22;1815;50.950;6.920;2023-05-10T00:00:52;15.50;99.90
3602;DHT22;1815;50.950;6.920;2023-05-10T00:03:18;15.50;99.90
3602;DHT22;1815;50.950;6.920;2023-05-10T00:05:44;15.50;99.90
3602;DHT22;1815;50.950;6.920;2023-05-10T00:08:09;15.50;99.90
3602;DHT22;1815;50.950;6.920;2023-05-10T00:10:35;15.60;99.90
3602;DHT22;1815;50.950;6.920;2023-05-10T00:13:02;15.60;99.90
3602;DHT22;1815;50.950;6.920;2023-05-10T00:15:28;15.60;99.90
3602;DHT22;1815;50.950;6.920;2023-05-10T00:17:56;15.60;99.90
3602;DHT22;1815;50.950;6.920;2023-05-10T00:20:22;15.60;99.90
3602;DHT22;1815;50.950;6.920;2023-05-10T00:22:48;15.60;99.90
3602;DHT22;1815;50.950;6.920;2023-05-10T00:25:13;15.60;99.90
3602;DHT22;1815;50.950;6.920;2023-05-10T00:27:39;15.60;99.90
3602;DHT22;1815;50.950;6.920;2023-05-10T00:30:05;15.60;99.90
3602;DHT22;1815;50.950;6.920;2023-05-10T00:32:31;15.60;99.90
3602;DHT22;1815;50.950;6.920;2023-05-10T00:34:57;15.60;99.90
3602;DHT22;1815;50.950;6.920;2023-05-10T00:37:23;15.60;99.90
3602;DHT22;1815;50.950;6.920;2023-05-10T00:39:49;15.60;99.90
3602;DHT22;1815;50.950;6.920;2023-05-10T00:42:14;15.60;99.90
3602;DHT22;1815;50.950;6.920;2023-05-10T00:44:40;15.60;99.90
3602;DHT22;1815;50.950;6.920;2023-05-10T00:47:06;15.60;99.90
3602;DHT22;1815;50.950;6.920;2023-05-10T00:49:32;15.60;99.90
3602;DHT22;1815;50.950;6.920;2023-05-10T00:51:58;15.70;99.90
3602;DHT22;1815;50.950;6.920;2023-05-10T00:54:25;15.70;99.90
3602;DHT22;1815;50.950;6.920;2023-05-10T00:56:51;15.70;99.90
3602;DHT22;1815;50.950;6.920;2023-05-10T00:59:17;15.70;99.90
3602;DHT22;1815;50.950;6.920;2023-05-10T01:01:46;15.70;99.90
3602;DHT22;1815;50.950;6.920;2023-05-10T01:04:13;15.70;99.90
3602;DHT22;1815;50.950;6.920;2023-05-10T01:06:42;15.70;99.90
3602;DHT22;1815;50.950;6.920;2023-05-10T01:09:08;15.70;99.90
3602;DHT22;1815;50.950;6.920;2023-05-10T01:11:35;15.70;99.90
3602;DHT22;1815;50.950;6.920;2023-05-10T01:14:02;15.70;99.90
3602;DHT22;1815;50.950;6.920;2023-05-10T01:16:30;15.80;99.90
3602;DHT22;1815;50.950;6.920;2023-05-10T01:18:58;15.80;99.90
3602;DHT22;1815;50.950;6.920;2023-05-10T01:21:38;15.80;99.90
3602;DHT22;1815;50.950;6.920;2023-05-10T01:27:25;15.80;99.90
3602;DHT22;1815;50.950;6.920;2023-05-10T01:33:01;15.80;99.90
3602;DHT22;1815;50.950;6.920;2023-05-10T01:35:46;15.80;99.90
3602;DHT22;1815;50.950;6.920;2023-05-10T01:38:47;15.80;99.90
3602;DHT22;1815;50.950;6.920;2023-05-10T01:41:36;15.80;99.90
3602;DHT22;1815;50.950;6.920;2023-05-10T01:46:48;15.80;99.90
3602;DHT22;1815;50.950;6.920;2023-05-10T01:49:24;15.80;99.90
3602;DHT22;1815;50.950;6.920;2023-05-10T01:51:54;15.80;99.90
3602;DHT22;1815;50.950;6.920;2023-05-10T01:54:23;15.80;99.90
3602;DHT22;1815;50.950;6.920;2023-05-10T01:56:59;15.80;99.90
3602;DHT22;1815;50.950;6.920;2023-05-10T01:59:29;15.80;99.90
3602;DHT22;1815;50.950;6.920;2023-05-10T02:01:58;15.80;99.90
3602;DHT22;1815;50.950;6.920;2023-05-10T02:04:25;15.80;99.90
3602;DHT22;1815;50.950;6.920;2023-05-10T02:06:53;15.80;99.90
3602;DHT22;1815;50.950;6.920;2023-05-10T02:09:20;15.80;99.90
3602;DHT22;1815;50.950;6.920;2023-05-10T02:11:48;15.80;99.90
3602;DHT22;1815;50.950;6.920;2023-05-10T02:14:15;15.80;99.90
3602;DHT22;1815;50.950;6.920;2023-05-10T02:16:43;15.80;99.90
3602;DHT22;1815;50.950;6.920;2023-05-10T02:19:10;15.80;99.90
3602;DHT22;1815;50.950;6.920;2023-05-10T02:21:39;15.80;99.90
3602;DHT22;1815;50.950;6.920;2023-05-10T02:24:05;15.80;99.90
3602;DHT22;1815;50.950;6.920;2023-05-10T02:26:32;15.80;99.90
3602;DHT22;1815;50.950;6.920;2023-05-10T02:29:01;15.80;99.90
3602;DHT22;1815;50.950;6.920;2023-05-10T02:31:30;15.70;99.90
3602;DHT22;1815;50.950;6.920;2023-05-10T02:33:57;15.70;99.90
3602;DHT22;1815;50.950;6.920;2023-05-10T02:36:25;15.70;99.90
3602;DHT22;1815;50.950;6.920;2023-05-10T02:38:53;15.70;99.90
3602;DHT22;1815;50.950;6.920;2023-05-10T02:41:20;15.70;99.90
3602;DHT22;1815;50.950;6.920;2023-05-10T02:43:50;15.70;99.90
3602;DHT22;1815;50.950;6.920;2023-05-10T02:46:17;15.70;99.90
3602;DHT22;1815;50.950;6.920;2023-05-10T02:48:43;15.70;99.90
3602;DHT22;1815;50.950;6.920;2023-05-10T02:51:12;15.60;99.90
3602;DHT22;1815;50.950;6.920;2023-05-10T02:53:41;15.60;99.90
3602;DHT22;1815;50.950;6.920;2023-05-10T02:56:20;15.60;99.90
3602;DHT22;1815;50.950;6.920;2023-05-10T02:58:47;15.60;99.90
3602;DHT22;1815;50.950;6.920;2023-05-10T03:01:12;15.60;99.90
3602;DHT22;1815;50.950;6.920;2023-05-10T03:03:38;15.50;99.90
3602;DHT22;1815;50.950;6.920;2023-05-10T03:06:04;15.50;99.90
3602;DHT22;1815;50.950;6.920;2023-05-10T03:08:30;15.50;99.90
3602;DHT22;1815;50.950;6.920;2023-05-10T03:16:38;15.50;99.90
3602;DHT22;1815;50.950;6.920;2023-05-10T03:22:41;15.50;99.90
3602;DHT22;1815;50.950;6.920;2023-05-10T03:25:11;15.50;99.90
3602;DHT22;1815;50.950;6.920;2023-05-10T03:27:41;15.50;99.90
3602;DHT22;1815;50.950;6.920;2023-05-10T03:30:10;15.50;99.90
3602;DHT22;1815;50.950;6.920;2023-05-10T03:32:36;15.50;99.90
3602;DHT22;1815;50.950;6.920;2023-05-10T03:35:09;15.50;99.90
3602;DHT22;1815;50.950;6.920;2023-05-10T03:37:36;15.60;99.90
3602;DHT22;1815;50.950;6.920;2023-05-10T03:40:02;15.50;99.90
3602;DHT22;1815;50.950;6.920;2023-05-10T03:42:31;15.60;99.90
3602;DHT22;1815;50.950;6.920;2023-05-10T03:44:57;15.60;99.90
3602;DHT22;1815;50.950;6.920;2023-05-10T03:47:22;15.50;99.90
3602;DHT22;1815;50.950;6.920;2023-05-10T03:49:48;15.60;99.90
3602;DHT22;1815;50.950;6.920;2023-05-10T03:52:14;15.60;99.90
3602;DHT22;1815;50.950;6.920;2023-05-10T03:54:40;15.60;99.90
3602;DHT22;1815;50.950;6.920;2023-05-10T03:57:05;15.60;99.90
3602;DHT22;1815;50.950;6.920;2023-05-10T03:59:32;15.60;99.90
3602;DHT22;1815;50.950;6.920;2023-05-10T04:01:57;15.70;99.90
3602;DHT22;1815;50.950;6.920;2023-05-10T04:04:23;15.70;99.90
3602;DHT22;1815;50.950;6.920;2023-05-10T04:06:49;15.70;99.90
3602;DHT22;1815;50.950;6.920;2023-05-10T04:09:15;15.70;99.90
3602;DHT22;1815;50.950;6.920;2023-05-10T04:11:42;15.70;99.90
3602;DHT22;1815;50.950;6.920;2023-05-10T04:14:08;15.70;99.90
3602;DHT22;1815;50.950;6.920;2023-05-10T04:16:34;15.80;99.90
3602;DHT22;1815;50.950;6.920;2023-05-10T04:19:00;15.80;99.90
3602;DHT22;1815;50.950;6.920;2023-05-10T04:21:26;15.80;99.90
3602;DHT22;1815;50.950;6.920;2023-05-10T04:23:52;15.80;99.90
3602;DHT22;1815;50.950;6.920;2023-05-10T04:26:17;15.80;99.90
3602;DHT22;1815;50.950;6.920;2023-05-10T04:28:43;15.80;99.90
3602;DHT22;1815;50.950;6.920;2023-05-10T04:31:09;15.80;99.90
3602;DHT22;1815;50.950;6.920;2023-05-10T04:33:36;15.80;99.90
3602;DHT22;1815;50.950;6.920;2023-05-10T04:36:02;15.80;99.90
3602;DHT22;1815;50.950;6.920;2023-05-10T04:38:28;15.80;99.90
3602;DHT22;1815;50.950;6.920;2023-05-10T04:40:54;15.70;99.90
3602;DHT22;1815;50.950;6.920;2023-05-10T04:43:20;15.70;99.90
3602;DHT22;1815;50.950;6.920;2023-05-10T04:45:46;15.70;99.90
3602;DHT22;1815;50.950;6.920;2023-05-10T04:48:12;15.80;99.90
3602;DHT22;1815;50.950;6.920;2023-05-10T04:50:38;15.70;99.90
3602;DHT22;1815;50.950;6.920;2023-05-10T04:53:04;15.70;99.90
3602;DHT22;1815;50.950;6.920;2023-05-10T04:55:30;15.70;99.90
3602;DHT22;1815;50.950;6.920;2023-05-10T04:57:56;15.70;99.90
3602;DHT22;1815;50.950;6.920;2023-05-10T05:00:23;15.70;99.90
3602;DHT22;1815;50.950;6.920;2023-05-10T05:02:48;15.80;99.90
3602;DHT22;1815;50.950;6.920;2023-05-10T05:05:14;15.80;99.90
3602;DHT22;1815;50.950;6.920;2023-05-10T05:07:40;15.80;99.90
3602;DHT22;1815;50.950;6.920;2023-05-10T05:10:06;15.80;99.90
3602;DHT22;1815;50.950;6.920;2023-05-10T05:12:33;15.90;99.90
3602;DHT22;1815;50.950;6.920;2023-05-10T05:14:58;15.90;99.90
3602;DHT22;1815;50.950;6.920;2023-05-10T05:17:24;15.90;99.90
3602;DHT22;1815;50.950;6.920;2023-05-10T05:19:50;15.90;99.90
3602;DHT22;1815;50.950;6.920;2023-05-10T05:22:15;16.00;99.90
3602;DHT22;1815;50.950;6.920;2023-05-10T05:24:41;16.00;99.90
3602;DHT22;1815;50.950;6.920;2023-05-10T05:27:07;16.00;99.90
3602;DHT22;1815;50.950;6.920;2023-05-10T05:29:32;16.00;99.90
3602;DHT22;1815;50.950;6.920;2023-05-10T05:31:58;16.00;99.90
3602;DHT22;1815;50.950;6.920;2023-05-10T05:34:25;16.00;99.90
3602;DHT22;1815;50.950;6.920;2023-05-10T05:36:51;16.10;99.90
3602;DHT22;1815;50.950;6.920;2023-05-10T05:39:17;16.10;99.90
3602;DHT22;1815;50.950;6.920;2023-05-10T05:41:42;16.10;99.90
3602;DHT22;1815;50.950;6.920;2023-05-10T05:44:09;16.10;99.90
3602;DHT22;1815;50.950;6.920;2023-05-10T05:46:35;16.10;99.90
3602;DHT22;1815;50.950;6.920;2023-05-10T05:49:01;16.10;99.90
3602;DHT22;1815;50.950;6.920;2023-05-10T05:51:26;16.10;99.90
3602;DHT22;1815;50.950;6.920;2023-05-10T05:53:52;16.10;99.90
3602;DHT22;1815;50.950;6.920;2023-05-10T05:56:18;16.10;99.90
3602;DHT22;1815;50.950;6.920;2023-05-10T05:58:50;16.20;99.90
3602;DHT22;1815;50.950;6.920;2023-05-10T06:01:16;16.20;99.90
3602;DHT22;1815;50.950;6.920;2023-05-10T06:03:42;16.20;99.90
3602;DHT22;1815;50.950;6.920;2023-05-10T06:06:07;16.20;99.90
3602;DHT22;1815;50.950;6.920;2023-05-10T06:08:33;16.30;99.90
3602;DHT22;1815;50.950;6.920;2023-05-10T06:11:00;16.40;99.90
3602;DHT22;1815;50.950;6.920;2023-05-10T06:13:26;16.40;99.90
3602;DHT22;1815;50.950;6.920;2023-05-10T06:16:00;16.40;99.90
3602;DHT22;1815;50.950;6.920;2023-05-10T06:18:26;16.40;99.90
3602;DHT22;1815;50.950;6.920;2023-05-10T06:20:52;16.50;99.90
3602;DHT22;1815;50.950;6.920;2023-05-10T06:23:18;16.50;99.90
3602;DHT22;1815;50.950;6.920;2023-05-10T06:25:43;16.50;99.90
3602;DHT22;1815;50.950;6.920;2023-05-10T06:28:09;16.50;99.90
3602;DHT22;1815;50.950;6.920;2023-05-10T06:30:36;16.50;99.90
3602;DHT22;1815;50.950;6.920;2023-05-10T06:33:02;16.50;99.90
3602;DHT22;1815;50.950;6.920;2023-05-10T06:35:28;16.50;99.90
3602;DHT22;1815;50.950;6.920;2023-05-10T06:37:54;16.50;99.90
3602;DHT22;1815;50.950;6.920;2023-05-10T06:40:20;16.50;99.90
3602;DHT22;1815;50.950;6.920;2023-05-10T06:42:47;16.50;99.90
3602;DHT22;1815;50.950;6.920;2023-05-10T06:45:13;16.50;99.90
3602;DHT22;1815;50.950;6.920;2023-05-10T06:47:40;16.50;99.90
3602;DHT22;1815;50.950;6.920;2023-05-10T06:50:07;16.50;99.90
3602;DHT22;1815;50.950;6.920;2023-05-10T06:52:33;16.50;99.90
3602;DHT22;1815;50.950;6.920;2023-05-10T06:54:59;16.50;99.90
3602;DHT22;1815;50.950;6.920;2023-05-10T06:57:26;16.40;99.90
3602;DHT22;1815;50.950;6.920;2023-05-10T06:59:52;16.40;99.90
3602;DHT22;1815;50.950;6.920;2023-05-10T07:02:18;16.40;99.90
3602;DHT22;1815;50.950;6.920;2023-05-10T07:04:44;16.40;99.90
3602;DHT22;1815;50.950;6.920;2023-05-10T07:07:10;16.40;99.90
3602;DHT22;1815;50.950;6.920;2023-05-10T07:09:35;16.40;99.90
3602;DHT22;1815;50.950;6.920;2023-05-10T07:12:01;16.40;99.90
3602;DHT22;1815;50.950;6.920;2023-05-10T07:14:27;16.40;99.90
3602;DHT22;1815;50.950;6.920;2023-05-10T07:16:53;16.40;99.90
3602;DHT22;1815;50.950;6.920;2023-05-10T07:19:19;16.50;99.90
3602;DHT22;1815;50.950;6.920;2023-05-10T07:21:45;16.50;99.90
3602;DHT22;1815;50.950;6.920;2023-05-10T07:24:11;16.60;99.90
3602;DHT22;1815;50.950;6.920;2023-05-10T07:26:36;16.70;99.90
3602;DHT22;1815;50.950;6.920;2023-05-10T07:29:02;16.70;99.90
3602;DHT22;1815;50.950;6.920;2023-05-10T07:31:28;16.80;99.90
3602;DHT22;1815;50.950;6.920;2023-05-10T07:33:54;16.90;99.90
3602;DHT22;1815;50.950;6.920;2023-05-10T07:36:20;16.90;99.90
3602;DHT22;1815;50.950;6.920;2023-05-10T07:38:45;16.90;99.90
3602;DHT22;1815;50.950;6.920;2023-05-10T07:41:12;16.90;99.90
3602;DHT22;1815;50.950;6.920;2023-05-10T07:43:38;16.90;99.90
3602;DHT22;1815;50.950;6.920;2023-05-10T07:46:03;16.90;99.90
3602;DHT22;1815;50.950;6.920;2023-05-10T07:48:29;16.90;99.90
3602;DHT22;1815;50.950;6.920;2023-05-10T07:50:55;17.00;99.90
3602;DHT22;1815;50.950;6.920;2023-05-10T07:53:20;17.00;99.90
3602;DHT22;1815;50.950;6.920;2023-05-10T07:55:58;17.00;99.90
3602;DHT22;1815;50.950;6.920;2023-05-10T07:58:24;17.00;99.90
3602;DHT22;1815;50.950;6.920;2023-05-10T08:00:51;17.00;99.90
3602;DHT22;1815;50.950;6.920;2023-05-10T08:03:17;17.00;99.90
3602;DHT22;1815;50.950;6.920;2023-05-10T08:05:43;17.00;99.90
3602;DHT22;1815;50.950;6.920;2023-05-10T08:08:08;17.00;99.90
3602;DHT22;1815;50.950;6.920;2023-05-10T08:10:34;17.00;99.90
3602;DHT22;1815;50.950;6.920;2023-05-10T08:13:00;17.00;99.90
3602;DHT22;1815;50.950;6.920;2023-05-10T08:15:26;17.00;99.90
3602;DHT22;1815;50.950;6.920;2023-05-10T08:17:52;17.00;99.90
3602;DHT22;1815;50.950;6.920;2023-05-10T08:20:18;17.00;99.90
3602;DHT22;1815;50.950;6.920;2023-05-10T08:22:47;17.00;99.90
3602;DHT22;1815;50.950;6.920;2023-05-10T08:25:13;17.10;99.90
3602;DHT22;1815;50.950;6.920;2023-05-10T08:27:39;17.10;99.90
3602;DHT22;1815;50.950;6.920;2023-05-10T08:30:05;17.10;99.90
3602;DHT22;1815;50.950;6.920;2023-05-10T08:32:31;17.10;99.90
3602;DHT22;1815;50.950;6.920;2023-05-10T08:34:57;17.10;99.90
3602;DHT22;1815;50.950;6.920;2023-05-10T08:37:23;17.10;99.90
3602;DHT22;1815;50.950;6.920;2023-05-10T08:39:49;17.10;99.90
3602;DHT22;1815;50.950;6.920;2023-05-10T08:42:19;17.10;99.90
3602;DHT22;1815;50.950;6.920;2023-05-10T08:44:48;17.10;99.90
3602;DHT22;1815;50.950;6.920;2023-05-10T08:47:16;17.10;99.90
3602;DHT22;1815;50.950;6.920;2023-05-10T08:49:44;17.10;99.90
3602;DHT22;1815;50.950;6.920;2023-05-10T08:52:15;17.10;99.90
3602;DHT22;1815;50.950;6.920;2023-05-10T08:54:41;17.20;99.90
3602;DHT22;1815;50.950;6.920;2023-05-10T08:57:07;17.20;99.90
3602;DHT22;1815;50.950;6.920;2023-05-10T08:59:33;17.30;99.90
3602;DHT22;1815;50.950;6.920;2023-05-10T09:01:59;17.40;99.90
3602;DHT22;1815;50.950;6.920;2023-05-10T09:04:27;17.50;99.90
3602;DHT22;1815;50.950;6.920;2023-05-10T09:06:53;17.60;99.90
3602;DHT22;1815;50.950;6.920;2023-05-10T09:09:20;17.70;99.90
3602;DHT22;1815;50.950;6.920;2023-05-10T09:11:47;17.90;99.90
3602;DHT22;1815;50.950;6.920;2023-05-10T09:14:13;18.10;99.90
3602;DHT22;1815;50.950;6.920;2023-05-10T09:16:39;18.30;99.90
3602;DHT22;1815;50.950;6.920;2023-05-10T09:19:05;18.40;99.90
3602;DHT22;1815;50.950;6.920;2023-05-10T09:21:35;18.50;99.90
3602;DHT22;1815;50.950;6.920;2023-05-10T09:24:08;18.50;99.90
3602;DHT22;1815;50.950;6.920;2023-05-10T09:26:35;18.60;99.90
3602;DHT22;1815;50.950;6.920;2023-05-10T09:29:01;18.70;99.90
3602;DHT22;1815;50.950;6.920;2023-05-10T09:31:48;18.80;99.90
3602;DHT22;1815;50.950;6.920;2023-05-10T09:34:22;18.90;99.90
3602;DHT22;1815;50.950;6.920;2023-05-10T09:36:55;18.80;99.90
3602;DHT22;1815;50.950;6.920;2023-05-10T09:39:30;18.70;99.90
3602;DHT22;1815;50.950;6.920;2023-05-10T09:41:58;18.60;99.90
3602;DHT22;1815;50.950;6.920;2023-05-10T09:44:25;18.50;99.90
3602;DHT22;1815;50.950;6.920;2023-05-10T09:46:51;18.40;99.90
3602;DHT22;1815;50.950;6.920;2023-05-10T09:49:19;18.30;99.90
3602;DHT22;1815;50.950;6.920;2023-05-10T09:51:45;18.20;99.90
3602;DHT22;1815;50.950;6.920;2023-05-10T09:54:15;18.10;99.90
3602;DHT22;1815;50.950;6.920;2023-05-10T09:56:42;18.00;99.90
3602;DHT22;1815;50.950;6.920;2023-05-10T09:59:10;17.90;99.90
3602;DHT22;1815;50.950;6.920;2023-05-10T10:01:36;18.00;99.90
3602;DHT22;1815;50.950;6.920;2023-05-10T10:04:06;18.10;99.90
3602;DHT22;1815;50.950;6.920;2023-05-10T10:06:39;18.40;99.90
3602;DHT22;1815;50.950;6.920;2023-05-10T10:09:09;18.60;99.90
3602;DHT22;1815;50.950;6.920;2023-05-10T10:11:36;18.90;99.90
3602;DHT22;1815;50.950;6.920;2023-05-10T10:14:02;19.10;99.90
3602;DHT22;1815;50.950;6.920;2023-05-10T10:16:29;19.30;99.90
3602;DHT22;1815;50.950;6.920;2023-05-10T10:18:55;19.60;99.90
3602;DHT22;1815;50.950;6.920;2023-05-10T10:21:22;19.90;99.90
3602;DHT22;1815;50.950;6.920;2023-05-10T10:23:48;20.20;99.90
3602;DHT22;1815;50.950;6.920;2023-05-10T10:26:15;20.50;99.90
3602;DHT22;1815;50.950;6.920;2023-05-10T10:29:09;20.70;99.90
3602;DHT22;1815;50.950;6.920;2023-05-10T10:31:46;21.00;99.90
3602;DHT22;1815;50.950;6.920;2023-05-10T10:34:26;21.30;99.90
3602;DHT22;1815;50.950;6.920;2023-05-10T10:36:54;21.70;99.90
3602;DHT22;1815;50.950;6.920;2023-05-10T10:39:20;22.30;99.90
3602;DHT22;1815;50.950;6.920;2023-05-10T10:41:51;22.90;99.90
3602;DHT22;1815;50.950;6.920;2023-05-10T10:47:03;24.00;99.90
3602;DHT22;1815;50.950;6.920;2023-05-10T10:49:32;24.40;99.90
3602;DHT22;1815;50.950;6.920;2023-05-10T10:57:27;25.10;99.90
3602;DHT22;1815;50.950;6.920;2023-05-10T11:03:08;25.70;99.90
3602;DHT22;1815;50.950;6.920;2023-05-10T11:05:41;26.00;99.90
3602;DHT22;1815;50.950;6.920;2023-05-10T11:08:14;26.20;99.90
3602;DHT22;1815;50.950;6.920;2023-05-10T11:13:33;26.20;99.90
3602;DHT22;1815;50.950;6.920;2023-05-10T11:16:11;26.10;99.90
3602;DHT22;1815;50.950;6.920;2023-05-10T11:18:37;26.00;99.90
3602;DHT22;1815;50.950;6.920;2023-05-10T11:21:03;25.80;99.90
3602;DHT22;1815;50.950;6.920;2023-05-10T11:26:07;25.50;99.90
3602;DHT22;1815;50.950;6.920;2023-05-10T11:28:40;25.30;99.90
3602;DHT22;1815;50.950;6.920;2023-05-10T11:31:06;25.10;99.90
3602;DHT22;1815;50.950;6.920;2023-05-10T11:33:42;25.00;99.90
3602;DHT22;1815;50.950;6.920;2023-05-10T11:36:15;24.90;99.90
3602;DHT22;1815;50.950;6.920;2023-05-10T11:38:41;24.70;99.90
3602;DHT22;1815;50.950;6.920;2023-05-10T11:41:11;24.50;99.90
3602;DHT22;1815;50.950;6.920;2023-05-10T11:43:41;24.40;99.90
3602;DHT22;1815;50.950;6.920;2023-05-10T11:46:09;24.20;99.90
3602;DHT22;1815;50.950;6.920;2023-05-10T11:48:35;23.90;99.90
3602;DHT22;1815;50.950;6.920;2023-05-10T11:51:02;23.70;99.90
3602;DHT22;1815;50.950;6.920;2023-05-10T11:53:32;23.40;99.90
3602;DHT22;1815;50.950;6.920;2023-05-10T11:56:09;23.30;99.90
3602;DHT22;1815;50.950;6.920;2023-05-10T11:58:36;23.10;99.90
3602;DHT22;1815;50.950;6.920;2023-05-10T12:01:03;23.00;99.90
3602;DHT22;1815;50.950;6.920;2023-05-10T12:03:30;22.90;99.90
3602;DHT22;1815;50.950;6.920;2023-05-10T12:05:57;22.90;99.90
3602;DHT22;1815;50.950;6.920;2023-05-10T12:08:27;22.90;99.90
3602;DHT22;1815;50.950;6.920;2023-05-10T12:11:04;23.00;99.90
3602;DHT22;1815;50.950;6.920;2023-05-10T12:13:29;23.00;99.90
3602;DHT22;1815;50.950;6.920;2023-05-10T12:15:58;23.10;99.90
3602;DHT22;1815;50.950;6.920;2023-05-10T12:18:24;23.30;99.90
3602;DHT22;1815;50.950;6.920;2023-05-10T12:20:53;23.40;99.90
3602;DHT22;1815;50.950;6.920;2023-05-10T12:23:20;23.50;99.90
3602;DHT22;1815;50.950;6.920;2023-05-10T12:25:46;23.70;99.90
3602;DHT22;1815;50.950;6.920;2023-05-10T12:28:12;23.90;99.90
3602;DHT22;1815;50.950;6.920;2023-05-10T12:30:38;24.00;99.90
3602;DHT22;1815;50.950;6.920;2023-05-10T12:33:09;24.10;99.90
3602;DHT22;1815;50.950;6.920;2023-05-10T12:35:52;24.10;99.90
3602;DHT22;1815;50.950;6.920;2023-05-10T12:41:02;24.20;99.90
3602;DHT22;1815;50.950;6.920;2023-05-10T12:43:28;24.30;99.90
3602;DHT22;1815;50.950;6.920;2023-05-10T12:45:53;24.30;99.90
3602;DHT22;1815;50.950;6.920;2023-05-10T12:48:19;24.30;99.90
3602;DHT22;1815;50.950;6.920;2023-05-10T12:50:46;24.30;99.90
3602;DHT22;1815;50.950;6.920;2023-05-10T12:53:16;24.30;99.90
3602;DHT22;1815;50.950;6.920;2023-05-10T12:55:42;24.30;99.90
3602;DHT22;1815;50.950;6.920;2023-05-10T12:58:08;24.30;99.90
3602;DHT22;1815;50.950;6.920;2023-05-10T13:00:34;24.30;99.90
3602;DHT22;1815;50.950;6.920;2023-05-10T13:03:00;24.20;99.90
3602;DHT22;1815;50.950;6.920;2023-05-10T13:05:26;24.20;99.90
3602;DHT22;1815;50.950;6.920;2023-05-10T13:07:52;24.20;99.90
3602;DHT22;1815;50.950;6.920;2023-05-10T13:10:17;24.30;99.90
3602;DHT22;1815;50.950;6.920;2023-05-10T13:12:43;24.20;99.90
3602;DHT22;1815;50.950;6.920;2023-05-10T13:15:09;24.20;99.90
3602;DHT22;1815;50.950;6.920;2023-05-10T13:17:35;24.10;99.90
3602;DHT22;1815;50.950;6.920;2023-05-10T13:20:00;24.00;99.90
3602;DHT22;1815;50.950;6.920;2023-05-10T13:22:26;23.90;99.90
3602;DHT22;1815;50.950;6.920;2023-05-10T13:24:52;23.80;99.90
3602;DHT22;1815;50.950;6.920;2023-05-10T13:27:18;23.70;99.90
3602;DHT22;1815;50.950;6.920;2023-05-10T13:29:43;23.60;99.90
3602;DHT22;1815;50.950;6.920;2023-05-10T13:32:09;23.40;99.90
3602;DHT22;1815;50.950;6.920;2023-05-10T13:34:35;23.20;99.90
3602;DHT22;1815;50.950;6.920;2023-05-10T13:37:01;23.10;99.90
3602;DHT22;1815;50.950;6.920;2023-05-10T13:39:27;22.90;99.90
3602;DHT22;1815;50.950;6.920;2023-05-10T13:41:53;22.80;99.90
3602;DHT22;1815;50.950;6.920;2023-05-10T13:44:20;22.80;99.90
3602;DHT22;1815;50.950;6.920;2023-05-10T13:46:46;22.80;99.90
3602;DHT22;1815;50.950;6.920;2023-05-10T13:49:11;22.80;99.90
3602;DHT22;1815;50.950;6.920;2023-05-10T13:51:37;22.90;99.90
3602;DHT22;1815;50.950;6.920;2023-05-10T13:54:03;23.00;99.90
3602;DHT22;1815;50.950;6.920;2023-05-10T13:56:29;23.20;99.90
3602;DHT22;1815;50.950;6.920;2023-05-10T13:58:56;23.30;99.90
3602;DHT22;1815;50.950;6.920;2023-05-10T14:01:23;23.40;99.90
3602;DHT22;1815;50.950;6.920;2023-05-10T14:03:49;23.50;99.90
3602;DHT22;1815;50.950;6.920;2023-05-10T14:06:15;23.60;99.90
3602;DHT22;1815;50.950;6.920;2023-05-10T14:08:40;23.70;99.90
3602;DHT22;1815;50.950;6.920;2023-05-10T14:11:06;23.70;99.90
3602;DHT22;1815;50.950;6.920;2023-05-10T14:13:32;23.70;99.90
3602;DHT22;1815;50.950;6.920;2023-05-10T14:15:58;23.80;99.90
3602;DHT22;1815;50.950;6.920;2023-05-10T14:18:27;23.80;99.90
3602;DHT22;1815;50.950;6.920;2023-05-10T14:20:52;23.80;99.90
3602;DHT22;1815;50.950;6.920;2023-05-10T14:23:18;23.90;99.90
3602;DHT22;1815;50.950;6.920;2023-05-10T14:25:50;23.90;99.90
3602;DHT22;1815;50.950;6.920;2023-05-10T14:28:16;23.90;99.90
3602;DHT22;1815;50.950;6.920;2023-05-10T14:30:43;24.00;99.90
3602;DHT22;1815;50.950;6.920;2023-05-10T14:33:09;24.00;99.90
3602;DHT22;1815;50.950;6.920;2023-05-10T14:35:34;24.10;99.90
3602;DHT22;1815;50.950;6.920;2023-05-10T14:38:01;24.10;99.90
3602;DHT22;1815;50.950;6.920;2023-05-10T14:40:27;24.20;99.90
3602;DHT22;1815;50.950;6.920;2023-05-10T14:42:52;24.20;99.90
3602;DHT22;1815;50.950;6.920;2023-05-10T14:45:18;24.10;99.90
3602;DHT22;1815;50.950;6.920;2023-05-10T14:47:44;24.10;99.90
3602;DHT22;1815;50.950;6.920;2023-05-10T14:50:10;24.10;99.90
3602;DHT22;1815;50.950;6.920;2023-05-10T14:52:36;24.10;99.90
3602;DHT22;1815;50.950;6.920;2023-05-10T14:55:02;24.00;99.90
3602;DHT22;1815;50.950;6.920;2023-05-10T14:57:27;23.90;99.90
3602;DHT22;1815;50.950;6.920;2023-05-10T14:59:55;23.80;99.90
3602;DHT22;1815;50.950;6.920;2023-05-10T15:02:22;23.70;99.90
3602;DHT22;1815;50.950;6.920;2023-05-10T15:04:47;23.60;99.90
3602;DHT22;1815;50.950;6.920;2023-05-10T15:07:14;23.60;99.90
3602;DHT22;1815;50.950;6.920;2023-05-10T15:09:41;23.50;99.90
3602;DHT22;1815;50.950;6.920;2023-05-10T15:12:07;23.40;99.90
3602;DHT22;1815;50.950;6.920;2023-05-10T15:14:33;23.30;99.90
3602;DHT22;1815;50.950;6.920;2023-05-10T15:16:59;23.20;99.90
3602;DHT22;1815;50.950;6.920;2023-05-10T15:19:25;23.10;99.90
3602;DHT22;1815;50.950;6.920;2023-05-10T15:21:51;22.90;99.90
3602;DHT22;1815;50.950;6.920;2023-05-10T15:24:16;22.70;99.90
3602;DHT22;1815;50.950;6.920;2023-05-10T15:26:43;22.60;99.90
3602;DHT22;1815;50.950;6.920;2023-05-10T15:29:09;22.40;99.90
3602;DHT22;1815;50.950;6.920;2023-05-10T15:31:34;22.30;99.90
3602;DHT22;1815;50.950;6.920;2023-05-10T15:34:01;22.20;99.90
3602;DHT22;1815;50.950;6.920;2023-05-10T15:36:26;22.20;99.90
3602;DHT22;1815;50.950;6.920;2023-05-10T15:38:54;22.30;99.90
3602;DHT22;1815;50.950;6.920;2023-05-10T15:41:20;22.30;99.90
3602;DHT22;1815;50.950;6.920;2023-05-10T15:43:46;22.40;99.90
3602;DHT22;1815;50.950;6.920;2023-05-10T15:46:11;22.40;99.90
3602;DHT22;1815;50.950;6.920;2023-05-10T15:48:37;22.50;99.90
3602;DHT22;1815;50.950;6.920;2023-05-10T15:51:04;22.50;99.90
3602;DHT22;1815;50.950;6.920;2023-05-10T15:53:30;22.60;99.90
3602;DHT22;1815;50.950;6.920;2023-05-10T15:55:56;22.60;99.90
3602;DHT22;1815;50.950;6.920;2023-05-10T15:58:21;22.80;99.90
3602;DHT22;1815;50.950;6.920;2023-05-10T16:00:47;22.80;99.90
3602;DHT22;1815;50.950;6.920;2023-05-10T16:03:13;23.00;99.90
3602;DHT22;1815;50.950;6.920;2023-05-10T16:05:39;23.10;99.90
3602;DHT22;1815;50.950;6.920;2023-05-10T16:08:04;23.30;99.90
3602;DHT22;1815;50.950;6.920;2023-05-10T16:10:31;23.30;99.90
3602;DHT22;1815;50.950;6.920;2023-05-10T16:12:58;23.40;99.90
3602;DHT22;1815;50.950;6.920;2023-05-10T16:15:24;23.50;99.90
3602;DHT22;1815;50.950;6.920;2023-05-10T16:17:49;23.40;99.90
3602;DHT22;1815;50.950;6.920;2023-05-10T16:20:15;23.40;99.90
3602;DHT22;1815;50.950;6.920;2023-05-10T16:22:41;23.30;99.90
3602;DHT22;1815;50.950;6.920;2023-05-10T16:25:09;23.30;99.90
3602;DHT22;1815;50.950;6.920;2023-05-10T16:27:35;23.20;99.90
3602;DHT22;1815;50.950;6.920;2023-05-10T16:30:01;23.20;99.90
3602;DHT22;1815;50.950;6.920;2023-05-10T16:32:27;23.10;99.90
3602;DHT22;1815;50.950;6.920;2023-05-10T16:34:53;23.00;99.90
3602;DHT22;1815;50.950;6.920;2023-05-10T16:37:18;22.90;99.90
3602;DHT22;1815;50.950;6.920;2023-05-10T16:39:45;22.80;99.90